sensor_id;sensor_type;location;lat;lon;timestamp;temperature;humidity
18948;DHT22;9607;51.600;7.558;2023-04-03T00:00:49;1.60;99.90
18948;DHT22;9607;51.600;7.558;2023-04-03T00:03:16;1.60;99.90
18948;DHT22;9607;51.600;7.558;2023-04-03T00:05:45;1.60;99.90
18948;DHT22;9607;51.600;7.558;2023-04-03T00:08:12;1.60;99.90
18948;DHT22;9607;51.600;7.558;2023-04-03T00:10:39;1.70;99.90
18948;DHT22;9607;51.600;7.558;2023-04-03T00:13:07;1.70;99.90
18948;DHT22;9607;51.600;7.558;2023-04-03T00:15:34;1.70;99.90
18948;DHT22;9607;51.600;7.558;2023-04-03T00:18:03;1.80;99.90
18948;DHT22;9607;51.600;7.558;2023-04-03T00:20:31;1.90;99.90
18948;DHT22;9607;51.600;7.558;2023-04-03T00:22:58;1.90;99.90
18948;DHT22;9607;51.600;7.558;2023-04-03T00:25:24;1.90;99.90
18948;DHT22;9607;51.600;7.558;2023-04-03T00:27:51;2.00;99.90
18948;DHT22;9607;51.600;7.558;2023-04-03T00:30:21;2.00;99.90
18948;DHT22;9607;51.600;7.558;2023-04-03T00:32:48;2.00;99.90
18948;DHT22;9607;51.600;7.558;2023-04-03T00:35:15;2.10;99.90
18948;DHT22;9607;51.600;7.558;2023-04-03T00:37:42;2.10;99.90
18948;DHT22;9607;51.600;7.558;2023-04-03T00:40:10;2.10;99.90
18948;DHT22;9607;51.600;7.558;2023-04-03T00:42:37;2.10;99.90
18948;DHT22;9607;51.600;7.558;2023-04-03T00:45:38;2.20;99.90
18948;DHT22;9607;51.600;7.558;2023-04-03T00:48:08;2.20;99.90
18948;DHT22;9607;51.600;7.558;2023-04-03T00:50:39;2.20;99.90
18948;DHT22;9607;51.600;7.558;2023-04-03T00:53:10;2.20;99.90
18948;DHT22;9607;51.600;7.558;2023-04-03T00:55:38;2.10;99.90
18948;DHT22;9607;51.600;7.558;2023-04-03T00:58:06;2.10;99.90
18948;DHT22;9607;51.600;7.558;2023-04-03T01:00:37;2.10;99.90
18948;DHT22;9607;51.600;7.558;2023-04-03T01:03:05;2.10;99.90
18948;DHT22;9607;51.600;7.558;2023-04-03T01:05:32;2.10;99.90
18948;DHT22;9607;51.600;7.558;2023-04-03T01:07:59;2.10;99.90
18948;DHT22;9607;51.600;7.558;2023-04-03T01:10:27;2.00;99.90
18948;DHT22;9607;51.600;7.558;2023-04-03T01:12:53;2.00;99.90
18948;DHT22;9607;51.600;7.558;2023-04-03T01:15:23;2.00;99.90
18948;DHT22;9607;51.600;7.558;2023-04-03T01:17:54;2.00;99.90
18948;DHT22;9607;51.600;7.558;2023-04-03T01:21:05;2.00;99.90
18948;DHT22;9607;51.600;7.558;2023-04-03T01:23:46;2.00;99.90
18948;DHT22;9607;51.600;7.558;2023-04-03T01:26:15;2.00;99.90
18948;DHT22;9607;51.600;7.558;2023-04-03T01:28:43;1.90;99.90
18948;DHT22;9607;51.600;7.558;2023-04-03T01:31:15;1.90;99.90
18948;DHT22;9607;51.600;7.558;2023-04-03T01:33:48;1.90;99.90
18948;DHT22;9607;51.600;7.558;2023-04-03T01:36:19;1.80;99.90
18948;DHT22;9607;51.600;7.558;2023-04-03T01:38:48;1.80;99.90
18948;DHT22;9607;51.600;7.558;2023-04-03T01:41:15;1.80;99.90
18948;DHT22;9607;51.600;7.558;2023-04-03T01:43:42;1.80;99.90
18948;DHT22;9607;51.600;7.558;2023-04-03T01:46:09;1.80;99.90
18948;DHT22;9607;51.600;7.558;2023-04-03T01:48:36;1.70;99.90
18948;DHT22;9607;51.600;7.558;2023-04-03T01:51:04;1.70;99.90
18948;DHT22;9607;51.600;7.558;2023-04-03T01:53:31;1.70;99.90
18948;DHT22;9607;51.600;7.558;2023-04-03T01:55:58;1.70;99.90
18948;DHT22;9607;51.600;7.558;2023-04-03T01:58:25;1.60;99.90
18948;DHT22;9607;51.600;7.558;2023-04-03T02:00:52;1.60;99.90
18948;DHT22;9607;51.600;7.558;2023-04-03T02:03:20;1.50;99.90
18948;DHT22;9607;51.600;7.558;2023-04-03T02:05:47;1.50;99.90
18948;DHT22;9607;51.600;7.558;2023-04-03T02:08:15;1.50;99.90
18948;DHT22;9607;51.600;7.558;2023-04-03T02:10:43;1.50;99.90
18948;DHT22;9607;51.600;7.558;2023-04-03T02:13:10;1.50;99.90
18948;DHT22;9607;51.600;7.558;2023-04-03T02:15:37;1.50;99.90
18948;DHT22;9607;51.600;7.558;2023-04-03T02:18:04;1.40;99.90
18948;DHT22;9607;51.600;7.558;2023-04-03T02:20:31;1.40;99.90
18948;DHT22;9607;51.600;7.558;2023-04-03T02:22:58;1.40;99.90
18948;DHT22;9607;51.600;7.558;2023-04-03T02:25:26;1.40;99.90
18948;DHT22;9607;51.600;7.558;2023-04-03T02:27:53;1.40;99.90
18948;DHT22;9607;51.600;7.558;2023-04-03T02:30:20;1.40;99.90
18948;DHT22;9607;51.600;7.558;2023-04-03T02:32:47;1.40;99.90
18948;DHT22;9607;51.600;7.558;2023-04-03T02:35:14;1.30;99.90
18948;DHT22;9607;51.600;7.558;2023-04-03T02:37:41;1.30;99.90
18948;DHT22;9607;51.600;7.558;2023-04-03T02:40:08;1.30;99.90
18948;DHT22;9607;51.600;7.558;2023-04-03T02:42:38;1.20;99.90
18948;DHT22;9607;51.600;7.558;2023-04-03T02:45:06;1.20;99.90
18948;DHT22;9607;51.600;7.558;2023-04-03T02:47:33;1.20;99.90
18948;DHT22;9607;51.600;7.558;2023-04-03T02:49:59;1.20;99.90
18948;DHT22;9607;51.600;7.558;2023-04-03T02:52:26;1.10;99.90
18948;DHT22;9607;51.600;7.558;2023-04-03T02:54:53;1.10;99.90
18948;DHT22;9607;51.600;7.558;2023-04-03T02:57:20;1.10;99.90
18948;DHT22;9607;51.600;7.558;2023-04-03T02:59:48;1.10;99.90
18948;DHT22;9607;51.600;7.558;2023-04-03T03:02:15;1.10;99.90
18948;DHT22;9607;51.600;7.558;2023-04-03T03:04:42;1.00;99.90
18948;DHT22;9607;51.600;7.558;2023-04-03T03:07:09;1.00;99.90
18948;DHT22;9607;51.600;7.558;2023-04-03T03:09:36;1.00;99.90
18948;DHT22;9607;51.600;7.558;2023-04-03T03:12:03;1.00;99.90
18948;DHT22;9607;51.600;7.558;2023-04-03T03:14:30;0.90;99.90
18948;DHT22;9607;51.600;7.558;2023-04-03T03:16:58;0.90;99.90
18948;DHT22;9607;51.600;7.558;2023-04-03T03:19:25;0.90;99.90
18948;DHT22;9607;51.600;7.558;2023-04-03T03:21:52;0.90;99.90
18948;DHT22;9607;51.600;7.558;2023-04-03T03:24:18;0.90;99.90
18948;DHT22;9607;51.600;7.558;2023-04-03T03:26:45;0.80;99.90
18948;DHT22;9607;51.600;7.558;2023-04-03T03:29:12;0.80;99.90
18948;DHT22;9607;51.600;7.558;2023-04-03T03:31:38;0.80;99.90
18948;DHT22;9607;51.600;7.558;2023-04-03T03:34:07;0.80;99.90
18948;DHT22;9607;51.600;7.558;2023-04-03T03:36:41;0.80;99.90
18948;DHT22;9607;51.600;7.558;2023-04-03T03:39:09;0.70;99.90
18948;DHT22;9607;51.600;7.558;2023-04-03T03:41:36;0.70;99.90
18948;DHT22;9607;51.600;7.558;2023-04-03T03:44:03;0.70;99.90
18948;DHT22;9607;51.600;7.558;2023-04-03T03:46:30;0.70;99.90
18948;DHT22;9607;51.600;7.558;2023-04-03T03:48:57;0.60;99.90
18948;DHT22;9607;51.600;7.558;2023-04-03T03:51:25;0.60;99.90
18948;DHT22;9607;51.600;7.558;2023-04-03T03:53:52;0.50;99.90
18948;DHT22;9607;51.600;7.558;2023-04-03T03:56:18;0.50;99.90
18948;DHT22;9607;51.600;7.558;2023-04-03T03:58:45;0.50;99.90
18948;DHT22;9607;51.600;7.558;2023-04-03T04:01:12;0.50;99.90
18948;DHT22;9607;51.600;7.558;2023-04-03T04:03:39;0.50;99.90
18948;DHT22;9607;51.600;7.558;2023-04-03T04:06:06;0.50;99.90
18948;DHT22;9607;51.600;7.558;2023-04-03T04:08:34;0.50;99.90
18948;DHT22;9607;51.600;7.558;2023-04-03T04:11:01;0.40;99.90
18948;DHT22;9607;51.600;7.558;2023-04-03T04:13:28;0.40;99.90
18948;DHT22;9607;51.600;7.558;2023-04-03T04:15:55;0.40;99.90
18948;DHT22;9607;51.600;7.558;2023-04-03T04:18:21;0.40;99.90
18948;DHT22;9607;51.600;7.558;2023-04-03T04:20:49;0.40;99.90
18948;DHT22;9607;51.600;7.558;2023-04-03T04:23:16;0.40;99.90
18948;DHT22;9607;51.600;7.558;2023-04-03T04:25:45;0.30;99.90
18948;DHT22;9607;51.600;7.558;2023-04-03T04:28:12;0.30;99.90
18948;DHT22;9607;51.600;7.558;2023-04-03T04:30:39;0.30;99.90
18948;DHT22;9607;51.600;7.558;2023-04-03T04:33:07;0.30;99.90
18948;DHT22;9607;51.600;7.558;2023-04-03T04:35:33;0.20;99.90
18948;DHT22;9607;51.600;7.558;2023-04-03T04:38:00;0.20;99.90
18948;DHT22;9607;51.600;7.558;2023-04-03T04:40:27;0.20;99.90
18948;DHT22;9607;51.600;7.558;2023-04-03T04:42:56;0.20;99.90
18948;DHT22;9607;51.600;7.558;2023-04-03T04:45:23;0.10;99.90
18948;DHT22;9607;51.600;7.558;2023-04-03T04:47:50;0.10;99.90
18948;DHT22;9607;51.600;7.558;2023-04-03T04:50:18;0.10;99.90
18948;DHT22;9607;51.600;7.558;2023-04-03T04:52:45;0.10;99.90
18948;DHT22;9607;51.600;7.558;2023-04-03T04:55:11;0.10;99.90
18948;DHT22;9607;51.600;7.558;2023-04-03T04:57:38;0.10;99.90
18948;DHT22;9607;51.600;7.558;2023-04-03T05:00:08;0.10;99.90
18948;DHT22;9607;51.600;7.558;2023-04-03T05:02:35;0.10;99.90
18948;DHT22;9607;51.600;7.558;2023-04-03T05:05:01;0.00;99.90
18948;DHT22;9607;51.600;7.558;2023-04-03T05:07:28;0.00;99.90
18948;DHT22;9607;51.600;7.558;2023-04-03T05:09:55;0.00;99.90
18948;DHT22;9607;51.600;7.558;2023-04-03T05:12:22;0.00;99.90
18948;DHT22;9607;51.600;7.558;2023-04-03T05:14:48;0.00;99.90
18948;DHT22;9607;51.600;7.558;2023-04-03T05:17:17;0.00;99.90
18948;DHT22;9607;51.600;7.558;2023-04-03T05:19:43;0.10;99.90
18948;DHT22;9607;51.600;7.558;2023-04-03T05:22:10;0.00;99.90
18948;DHT22;9607;51.600;7.558;2023-04-03T05:24:37;0.10;99.90
18948;DHT22;9607;51.600;7.558;2023-04-03T05:27:04;0.10;99.90
18948;DHT22;9607;51.600;7.558;2023-04-03T05:29:30;0.10;99.90
18948;DHT22;9607;51.600;7.558;2023-04-03T05:31:57;0.20;99.90
18948;DHT22;9607;51.600;7.558;2023-04-03T05:34:26;0.20;99.90
18948;DHT22;9607;51.600;7.558;2023-04-03T05:36:53;0.30;99.90
18948;DHT22;9607;51.600;7.558;2023-04-03T05:39:20;0.40;99.90
18948;DHT22;9607;51.600;7.558;2023-04-03T05:41:47;0.40;99.90
18948;DHT22;9607;51.600;7.558;2023-04-03T05:44:14;0.50;99.90
18948;DHT22;9607;51.600;7.558;2023-04-03T05:46:41;0.60;99.90
18948;DHT22;9607;51.600;7.558;2023-04-03T05:49:08;0.70;99.90
18948;DHT22;9607;51.600;7.558;2023-04-03T05:51:36;0.80;99.90
18948;DHT22;9607;51.600;7.558;2023-04-03T05:54:09;0.80;99.90
18948;DHT22;9607;51.600;7.558;2023-04-03T05:56:36;0.90;99.90
18948;DHT22;9607;51.600;7.558;2023-04-03T05:59:03;0.80;99.90
18948;DHT22;9607;51.600;7.558;2023-04-03T06:01:29;1.00;99.90
18948;DHT22;9607;51.600;7.558;2023-04-03T06:03:56;1.00;99.90
18948;DHT22;9607;51.600;7.558;2023-04-03T06:06:24;1.10;99.90
18948;DHT22;9607;51.600;7.558;2023-04-03T06:08:52;1.10;99.90
18948;DHT22;9607;51.600;7.558;2023-04-03T06:11:19;1.20;99.90
18948;DHT22;9607;51.600;7.558;2023-04-03T06:13:47;1.20;99.90
18948;DHT22;9607;51.600;7.558;2023-04-03T06:16:15;1.30;99.90
18948;DHT22;9607;51.600;7.558;2023-04-03T06:18:43;1.40;99.90
18948;DHT22;9607;51.600;7.558;2023-04-03T06:21:10;1.40;99.90
18948;DHT22;9607;51.600;7.558;2023-04-03T06:23:37;1.50;99.90
18948;DHT22;9607;51.600;7.558;2023-04-03T06:26:05;1.50;99.90
18948;DHT22;9607;51.600;7.558;2023-04-03T06:28:32;1.60;99.90
18948;DHT22;9607;51.600;7.558;2023-04-03T06:30:59;1.70;99.90
18948;DHT22;9607;51.600;7.558;2023-04-03T06:33:26;1.70;99.90
18948;DHT22;9607;51.600;7.558;2023-04-03T06:35:57;1.80;99.90
18948;DHT22;9607;51.600;7.558;2023-04-03T06:38:24;1.80;99.90
18948;DHT22;9607;51.600;7.558;2023-04-03T06:40:51;1.90;99.90
18948;DHT22;9607;51.600;7.558;2023-04-03T06:43:20;1.90;99.90
18948;DHT22;9607;51.600;7.558;2023-04-03T06:45:47;2.00;99.90
18948;DHT22;9607;51.600;7.558;2023-04-03T06:48:14;2.00;99.90
18948;DHT22;9607;51.600;7.558;2023-04-03T06:50:41;2.10;99.90
18948;DHT22;9607;51.600;7.558;2023-04-03T06:53:08;2.20;99.90
18948;DHT22;9607;51.600;7.558;2023-04-03T06:55:36;2.20;99.90
18948;DHT22;9607;51.600;7.558;2023-04-03T06:58:03;2.30;99.90
18948;DHT22;9607;51.600;7.558;2023-04-03T07:00:31;2.30;99.90
18948;DHT22;9607;51.600;7.558;2023-04-03T07:02:58;2.30;99.90
18948;DHT22;9607;51.600;7.558;2023-04-03T07:05:25;2.40;99.90
18948;DHT22;9607;51.600;7.558;2023-04-03T07:07:52;2.40;99.90
18948;DHT22;9607;51.600;7.558;2023-04-03T07:10:19;2.50;99.90
18948;DHT22;9607;51.600;7.558;2023-04-03T07:12:46;2.50;99.90
18948;DHT22;9607;51.600;7.558;2023-04-03T07:15:12;2.60;99.90
18948;DHT22;9607;51.600;7.558;2023-04-03T07:17:41;2.70;99.90
18948;DHT22;9607;51.600;7.558;2023-04-03T07:20:08;2.80;99.90
18948;DHT22;9607;51.600;7.558;2023-04-03T07:22:36;2.90;99.90
18948;DHT22;9607;51.600;7.558;2023-04-03T07:25:03;3.00;99.90
18948;DHT22;9607;51.600;7.558;2023-04-03T07:27:33;3.00;99.90
18948;DHT22;9607;51.600;7.558;2023-04-03T07:29:59;3.10;99.90
18948;DHT22;9607;51.600;7.558;2023-04-03T07:32:26;3.10;99.90
18948;DHT22;9607;51.600;7.558;2023-04-03T07:34:55;3.20;99.90
18948;DHT22;9607;51.600;7.558;2023-04-03T07:37:22;3.30;99.90
18948;DHT22;9607;51.600;7.558;2023-04-03T07:39:49;3.30;99.90
18948;DHT22;9607;51.600;7.558;2023-04-03T07:42:16;3.40;99.90
18948;DHT22;9607;51.600;7.558;2023-04-03T07:44:43;3.40;99.90
18948;DHT22;9607;51.600;7.558;2023-04-03T07:47:10;3.50;99.90
18948;DHT22;9607;51.600;7.558;2023-04-03T07:49:36;3.50;99.90
18948;DHT22;9607;51.600;7.558;2023-04-03T07:52:07;3.60;99.90
18948;DHT22;9607;51.600;7.558;2023-04-03T07:54:35;3.60;99.90
18948;DHT22;9607;51.600;7.558;2023-04-03T07:57:02;3.70;99.90
18948;DHT22;9607;51.600;7.558;2023-04-03T07:59:29;3.70;99.90
18948;DHT22;9607;51.600;7.558;2023-04-03T08:01:56;3.80;99.90
18948;DHT22;9607;51.600;7.558;2023-04-03T08:04:23;3.80;99.90
18948;DHT22;9607;51.600;7.558;2023-04-03T08:06:50;3.90;99.90
18948;DHT22;9607;51.600;7.558;2023-04-03T08:09:18;3.90;99.90
18948;DHT22;9607;51.600;7.558;2023-04-03T08:11:46;4.20;99.90
18948;DHT22;9607;51.600;7.558;2023-04-03T08:14:13;4.40;99.90
18948;DHT22;9607;51.600;7.558;2023-04-03T08:16:44;4.60;99.90
18948;DHT22;9607;51.600;7.558;2023-04-03T08:19:11;4.80;99.90
18948;DHT22;9607;51.600;7.558;2023-04-03T08:21:39;5.10;99.90
18948;DHT22;9607;51.600;7.558;2023-04-03T08:24:07;5.30;99.90
18948;DHT22;9607;51.600;7.558;2023-04-03T08:26:35;5.50;99.90
18948;DHT22;9607;51.600;7.558;2023-04-03T08:29:02;5.60;99.90
18948;DHT22;9607;51.600;7.558;2023-04-03T08:31:29;5.80;99.90
18948;DHT22;9607;51.600;7.558;2023-04-03T08:33:56;6.00;99.90
18948;DHT22;9607;51.600;7.558;2023-04-03T08:36:25;6.10;99.90
18948;DHT22;9607;51.600;7.558;2023-04-03T08:38:53;6.20;99.90
18948;DHT22;9607;51.600;7.558;2023-04-03T08:41:27;6.40;99.90
18948;DHT22;9607;51.600;7.558;2023-04-03T08:44:07;6.50;99.90
18948;DHT22;9607;51.600;7.558;2023-04-03T08:46:47;6.60;99.90
18948;DHT22;9607;51.600;7.558;2023-04-03T08:49:22;6.70;99.90
18948;DHT22;9607;51.600;7.558;2023-04-03T08:51:52;6.70;99.90
18948;DHT22;9607;51.600;7.558;2023-04-03T08:54:25;6.70;99.90
18948;DHT22;9607;51.600;7.558;2023-04-03T08:56:53;6.80;99.90
18948;DHT22;9607;51.600;7.558;2023-04-03T08:59:28;7.10;99.90
18948;DHT22;9607;51.600;7.558;2023-04-03T09:01:56;7.20;99.90
18948;DHT22;9607;51.600;7.558;2023-04-03T09:04:25;7.20;99.90
18948;DHT22;9607;51.600;7.558;2023-04-03T09:06:55;7.20;99.90
18948;DHT22;9607;51.600;7.558;2023-04-03T09:09:31;7.30;99.90
18948;DHT22;9607;51.600;7.558;2023-04-03T09:12:04;7.30;99.90
18948;DHT22;9607;51.600;7.558;2023-04-03T09:14:39;7.30;99.90
18948;DHT22;9607;51.600;7.558;2023-04-03T09:17:13;7.40;99.90
18948;DHT22;9607;51.600;7.558;2023-04-03T09:19:47;7.50;99.90
18948;DHT22;9607;51.600;7.558;2023-04-03T09:22:18;7.70;99.90
18948;DHT22;9607;51.600;7.558;2023-04-03T09:24:47;7.70;99.90
18948;DHT22;9607;51.600;7.558;2023-04-03T09:27:15;7.80;99.90
18948;DHT22;9607;51.600;7.558;2023-04-03T09:29:44;7.80;99.90
18948;DHT22;9607;51.600;7.558;2023-04-03T09:32:26;7.80;99.90
18948;DHT22;9607;51.600;7.558;2023-04-03T09:34:55;7.90;99.90
18948;DHT22;9607;51.600;7.558;2023-04-03T09:37:47;7.80;99.90
18948;DHT22;9607;51.600;7.558;2023-04-03T09:40:35;7.80;99.90
18948;DHT22;9607;51.600;7.558;2023-04-03T09:43:20;8.00;99.90
18948;DHT22;9607;51.600;7.558;2023-04-03T09:45:49;8.20;99.90
18948;DHT22;9607;51.600;7.558;2023-04-03T09:48:19;8.40;99.90
18948;DHT22;9607;51.600;7.558;2023-04-03T09:50:58;8.40;99.90
18948;DHT22;9607;51.600;7.558;2023-04-03T09:53:32;8.40;99.90
18948;DHT22;9607;51.600;7.558;2023-04-03T09:56:00;8.40;99.90
18948;DHT22;9607;51.600;7.558;2023-04-03T09:58:30;8.40;99.90
18948;DHT22;9607;51.600;7.558;2023-04-03T10:01:01;8.40;99.90
18948;DHT22;9607;51.600;7.558;2023-04-03T10:03:30;8.40;99.90
18948;DHT22;9607;51.600;7.558;2023-04-03T10:05:58;8.40;99.00
18948;DHT22;9607;51.600;7.558;2023-04-03T10:08:28;8.20;97.60
18948;DHT22;9607;51.600;7.558;2023-04-03T10:11:13;8.10;98.20
18948;DHT22;9607;51.600;7.558;2023-04-03T10:13:55;8.10;98.70
18948;DHT22;9607;51.600;7.558;2023-04-03T10:16:28;8.00;98.40
18948;DHT22;9607;51.600;7.558;2023-04-03T10:19:10;8.00;99.00
18948;DHT22;9607;51.600;7.558;2023-04-03T10:21:44;8.00;98.20
18948;DHT22;9607;51.600;7.558;2023-04-03T10:24:16;8.00;99.10
18948;DHT22;9607;51.600;7.558;2023-04-03T10:26:52;8.10;98.60
18948;DHT22;9607;51.600;7.558;2023-04-03T10:29:38;8.10;97.30
18948;DHT22;9607;51.600;7.558;2023-04-03T10:32:32;8.10;95.20
18948;DHT22;9607;51.600;7.558;2023-04-03T10:35:10;8.10;95.10
18948;DHT22;9607;51.600;7.558;2023-04-03T10:37:50;8.10;95.20
18948;DHT22;9607;51.600;7.558;2023-04-03T10:40:24;8.10;94.80
18948;DHT22;9607;51.600;7.558;2023-04-03T10:43:01;8.10;94.70
18948;DHT22;9607;51.600;7.558;2023-04-03T10:45:32;8.20;94.90
18948;DHT22;9607;51.600;7.558;2023-04-03T10:48:08;8.20;94.90
18948;DHT22;9607;51.600;7.558;2023-04-03T10:50:42;8.20;92.80
18948;DHT22;9607;51.600;7.558;2023-04-03T10:53:17;8.20;93.30
18948;DHT22;9607;51.600;7.558;2023-04-03T10:55:53;8.30;92.90
18948;DHT22;9607;51.600;7.558;2023-04-03T10:58:28;8.40;92.80
18948;DHT22;9607;51.600;7.558;2023-04-03T11:01:02;8.40;92.80
18948;DHT22;9607;51.600;7.558;2023-04-03T11:03:36;8.50;90.60
18948;DHT22;9607;51.600;7.558;2023-04-03T11:06:07;8.50;89.60
18948;DHT22;9607;51.600;7.558;2023-04-03T11:08:38;8.50;86.50
18948;DHT22;9607;51.600;7.558;2023-04-03T11:11:11;8.50;87.60
18948;DHT22;9607;51.600;7.558;2023-04-03T11:13:43;8.60;87.80
18948;DHT22;9607;51.600;7.558;2023-04-03T11:16:15;8.60;87.60
18948;DHT22;9607;51.600;7.558;2023-04-03T11:18:49;8.70;90.00
18948;DHT22;9607;51.600;7.558;2023-04-03T11:21:22;8.80;89.70
18948;DHT22;9607;51.600;7.558;2023-04-03T11:23:51;8.90;85.90
18948;DHT22;9607;51.600;7.558;2023-04-03T11:26:21;8.90;84.90
18948;DHT22;9607;51.600;7.558;2023-04-03T11:28:52;9.00;86.00
18948;DHT22;9607;51.600;7.558;2023-04-03T11:31:30;9.10;89.00
18948;DHT22;9607;51.600;7.558;2023-04-03T11:34:08;9.20;88.10
18948;DHT22;9607;51.600;7.558;2023-04-03T11:36:47;9.30;86.70
18948;DHT22;9607;51.600;7.558;2023-04-03T11:39:21;9.40;86.30
18948;DHT22;9607;51.600;7.558;2023-04-03T11:41:49;9.60;88.00
18948;DHT22;9607;51.600;7.558;2023-04-03T11:44:33;9.70;87.30
18948;DHT22;9607;51.600;7.558;2023-04-03T11:47:02;9.80;88.60
18948;DHT22;9607;51.600;7.558;2023-04-03T11:49:59;10.00;87.30
18948;DHT22;9607;51.600;7.558;2023-04-03T11:52:55;10.10;86.70
18948;DHT22;9607;51.600;7.558;2023-04-03T11:55:45;10.30;87.10
18948;DHT22;9607;51.600;7.558;2023-04-03T11:58:19;10.40;83.30
18948;DHT22;9607;51.600;7.558;2023-04-03T12:00:55;10.50;81.20
18948;DHT22;9607;51.600;7.558;2023-04-03T12:03:57;10.60;82.10
18948;DHT22;9607;51.600;7.558;2023-04-03T12:06:54;10.70;81.20
18948;DHT22;9607;51.600;7.558;2023-04-03T12:09:32;10.80;79.70
18948;DHT22;9607;51.600;7.558;2023-04-03T12:12:27;10.80;76.80
18948;DHT22;9607;51.600;7.558;2023-04-03T12:14:54;10.90;77.50
18948;DHT22;9607;51.600;7.558;2023-04-03T12:17:23;11.10;75.10
18948;DHT22;9607;51.600;7.558;2023-04-03T12:19:52;11.50;76.30
18948;DHT22;9607;51.600;7.558;2023-04-03T12:22:20;12.50;74.40
18948;DHT22;9607;51.600;7.558;2023-04-03T12:24:49;13.80;69.80
18948;DHT22;9607;51.600;7.558;2023-04-03T12:27:33;15.10;63.00
18948;DHT22;9607;51.600;7.558;2023-04-03T12:30:07;16.50;58.50
18948;DHT22;9607;51.600;7.558;2023-04-03T12:33:02;17.80;54.40
18948;DHT22;9607;51.600;7.558;2023-04-03T12:35:35;18.90;51.00
18948;DHT22;9607;51.600;7.558;2023-04-03T12:38:22;19.70;47.90
18948;DHT22;9607;51.600;7.558;2023-04-03T12:40:58;20.40;46.20
18948;DHT22;9607;51.600;7.558;2023-04-03T12:43:42;20.90;43.30
18948;DHT22;9607;51.600;7.558;2023-04-03T12:46:15;21.10;42.30
18948;DHT22;9607;51.600;7.558;2023-04-03T12:48:48;21.50;42.20
18948;DHT22;9607;51.600;7.558;2023-04-03T12:51:19;22.00;40.50
18948;DHT22;9607;51.600;7.558;2023-04-03T12:53:47;22.50;39.90
18948;DHT22;9607;51.600;7.558;2023-04-03T12:56:20;22.80;39.10
18948;DHT22;9607;51.600;7.558;2023-04-03T12:58:48;22.80;37.90
18948;DHT22;9607;51.600;7.558;2023-04-03T13:01:18;22.70;38.00
18948;DHT22;9607;51.600;7.558;2023-04-03T13:03:50;22.70;38.20
18948;DHT22;9607;51.600;7.558;2023-04-03T13:06:19;22.30;37.60
18948;DHT22;9607;51.600;7.558;2023-04-03T13:08:52;21.90;38.60
18948;DHT22;9607;51.600;7.558;2023-04-03T13:11:20;21.50;39.00
18948;DHT22;9607;51.600;7.558;2023-04-03T13:13:55;21.00;39.90
18948;DHT22;9607;51.600;7.558;2023-04-03T13:16:24;20.80;40.20
18948;DHT22;9607;51.600;7.558;2023-04-03T13:18:53;20.90;40.70
18948;DHT22;9607;51.600;7.558;2023-04-03T13:21:22;20.80;40.90
18948;DHT22;9607;51.600;7.558;2023-04-03T13:23:51;20.60;40.40
18948;DHT22;9607;51.600;7.558;2023-04-03T13:26:21;20.30;41.30
18948;DHT22;9607;51.600;7.558;2023-04-03T13:28:49;20.10;42.00
18948;DHT22;9607;51.600;7.558;2023-04-03T13:31:25;19.70;41.50
18948;DHT22;9607;51.600;7.558;2023-04-03T13:34:04;19.70;42.40
18948;DHT22;9607;51.600;7.558;2023-04-03T13:36:50;19.80;42.20
18948;DHT22;9607;51.600;7.558;2023-04-03T13:39:23;19.60;41.60
18948;DHT22;9607;51.600;7.558;2023-04-03T13:41:51;19.50;43.10
18948;DHT22;9607;51.600;7.558;2023-04-03T13:44:28;19.70;43.30
18948;DHT22;9607;51.600;7.558;2023-04-03T13:46:58;19.80;42.60
18948;DHT22;9607;51.600;7.558;2023-04-03T13:49:31;19.80;42.00
18948;DHT22;9607;51.600;7.558;2023-04-03T13:51:59;19.70;41.80
18948;DHT22;9607;51.600;7.558;2023-04-03T13:54:31;19.40;42.40
18948;DHT22;9607;51.600;7.558;2023-04-03T13:56:59;19.20;42.40
18948;DHT22;9607;51.600;7.558;2023-04-03T13:59:28;19.00;42.70
18948;DHT22;9607;51.600;7.558;2023-04-03T14:02:13;18.90;44.00
18948;DHT22;9607;51.600;7.558;2023-04-03T14:04:53;18.70;43.90
18948;DHT22;9607;51.600;7.558;2023-04-03T14:07:24;18.70;44.20
18948;DHT22;9607;51.600;7.558;2023-04-03T14:09:51;18.50;44.30
18948;DHT22;9607;51.600;7.558;2023-04-03T14:12:24;18.30;45.00
18948;DHT22;9607;51.600;7.558;2023-04-03T14:14:51;18.00;45.30
18948;DHT22;9607;51.600;7.558;2023-04-03T14:17:21;18.30;46.10
18948;DHT22;9607;51.600;7.558;2023-04-03T14:19:50;18.80;46.00
18948;DHT22;9607;51.600;7.558;2023-04-03T14:22:19;19.20;44.70
18948;DHT22;9607;51.600;7.558;2023-04-03T14:24:47;19.70;43.60
18948;DHT22;9607;51.600;7.558;2023-04-03T14:27:17;20.50;43.80
18948;DHT22;9607;51.600;7.558;2023-04-03T14:29:45;21.30;42.50
18948;DHT22;9607;51.600;7.558;2023-04-03T14:32:13;21.30;40.50
18948;DHT22;9607;51.600;7.558;2023-04-03T14:34:43;20.90;40.20
18948;DHT22;9607;51.600;7.558;2023-04-03T14:37:12;20.70;41.50
18948;DHT22;9607;51.600;7.558;2023-04-03T14:39:40;20.80;40.80
18948;DHT22;9607;51.600;7.558;2023-04-03T14:42:12;20.20;39.30
18948;DHT22;9607;51.600;7.558;2023-04-03T14:44:40;19.50;40.10
18948;DHT22;9607;51.600;7.558;2023-04-03T14:47:10;19.20;41.00
18948;DHT22;9607;51.600;7.558;2023-04-03T14:49:37;19.20;41.90
18948;DHT22;9607;51.600;7.558;2023-04-03T14:52:06;19.50;42.30
18948;DHT22;9607;51.600;7.558;2023-04-03T14:54:33;20.20;41.90
18948;DHT22;9607;51.600;7.558;2023-04-03T14:57:01;21.00;41.10
18948;DHT22;9607;51.600;7.558;2023-04-03T14:59:29;21.90;40.50
18948;DHT22;9607;51.600;7.558;2023-04-03T15:01:57;22.50;39.90
18948;DHT22;9607;51.600;7.558;2023-04-03T15:04:23;23.10;40.10
18948;DHT22;9607;51.600;7.558;2023-04-03T15:06:51;23.70;38.30
18948;DHT22;9607;51.600;7.558;2023-04-03T15:09:22;24.10;36.10
18948;DHT22;9607;51.600;7.558;2023-04-03T15:11:50;23.90;34.50
18948;DHT22;9607;51.600;7.558;2023-04-03T15:14:17;23.00;35.00
18948;DHT22;9607;51.600;7.558;2023-04-03T15:16:44;22.70;37.00
18948;DHT22;9607;51.600;7.558;2023-04-03T15:19:11;23.20;37.90
18948;DHT22;9607;51.600;7.558;2023-04-03T15:21:38;24.30;37.10
18948;DHT22;9607;51.600;7.558;2023-04-03T15:24:05;25.60;34.50
18948;DHT22;9607;51.600;7.558;2023-04-03T15:26:33;26.60;34.50
18948;DHT22;9607;51.600;7.558;2023-04-03T15:29:00;27.60;33.20
18948;DHT22;9607;51.600;7.558;2023-04-03T15:31:27;28.50;31.30
18948;DHT22;9607;51.600;7.558;2023-04-03T15:33:54;29.40;29.80
18948;DHT22;9607;51.600;7.558;2023-04-03T15:36:21;29.80;28.90
18948;DHT22;9607;51.600;7.558;2023-04-03T15:38:48;30.00;28.60
18948;DHT22;9607;51.600;7.558;2023-04-03T15:41:14;30.30;28.80
18948;DHT22;9607;51.600;7.558;2023-04-03T15:43:43;30.60;27.80
18948;DHT22;9607;51.600;7.558;2023-04-03T15:46:09;31.00;27.50
18948;DHT22;9607;51.600;7.558;2023-04-03T15:48:36;31.40;27.30
18948;DHT22;9607;51.600;7.558;2023-04-03T15:51:05;31.70;26.60
18948;DHT22;9607;51.600;7.558;2023-04-03T15:53:32;32.10;26.50
18948;DHT22;9607;51.600;7.558;2023-04-03T15:55:59;32.60;26.50
18948;DHT22;9607;51.600;7.558;2023-04-03T15:58:25;33.30;26.90
18948;DHT22;9607;51.600;7.558;2023-04-03T16:00:53;34.00;26.10
18948;DHT22;9607;51.600;7.558;2023-04-03T16:03:20;34.40;25.40
18948;DHT22;9607;51.600;7.558;2023-04-03T16:05:48;34.60;25.10
18948;DHT22;9607;51.600;7.558;2023-04-03T16:08:15;34.80;24.90
18948;DHT22;9607;51.600;7.558;2023-04-03T16:10:43;34.80;24.50
18948;DHT22;9607;51.600;7.558;2023-04-03T16:13:11;34.70;24.40
18948;DHT22;9607;51.600;7.558;2023-04-03T16:15:38;34.70;24.70